Terminal Aerodrome Forecast
Issued by NWS Binghamton, NY

Home | Current Version | Previous Version | Text Only | Print | Product List | Glossary On
Versions: 1 2 3 4 5 6 7 8 9 10 11 12 13 14 15 16
000
FTUS41 KBGM 260537
TAFSYR
TAF
KSYR 260537Z 2606/2706 27010KT P6SM OVC008
      TEMPO 2608/2612 SCT008 OVC012
     FM261200 26012G17KT 4SM -SHRA BR OVC008
     FM261700 27014G20KT P6SM OVC012
     FM262000 29012G17KT P6SM BKN030
     FM262300 26006KT P6SM FEW030=

USA.gov is the U.S. government's official web portal to all federal, state and local government web resources and services.